createdAt,value
2018-09-01T00:00:56.770Z,96.6
2018-09-01T00:01:58.591Z,96.7
2018-09-01T00:03:00.474Z,96.4
2018-09-01T00:04:02.215Z,96.1
2018-09-01T00:05:03.963Z,96.3
2018-09-01T00:06:05.872Z,95.8
2018-09-01T00:07:07.543Z,96.6
2018-09-01T00:08:09.242Z,96.4
2018-09-01T00:09:11.179Z,96.4
2018-09-01T00:10:13.129Z,96.9
2018-09-01T00:11:14.894Z,97.0
2018-09-01T00:12:16.535Z,97.0
2018-09-01T00:13:18.449Z,97.3
2018-09-01T00:14:20.167Z,97.5
2018-09-01T00:15:21.843Z,97.2
2018-09-01T00:16:23.605Z,97.4
2018-09-01T00:17:25.387Z,97.4
2018-09-01T00:18:27.074Z,97.8
2018-09-01T00:19:28.775Z,97.3
2018-09-01T00:20:30.560Z,97.8
2018-09-01T00:21:32.572Z,97.8
2018-09-01T00:22:34.317Z,97.3
2018-09-01T00:23:36.081Z,97.8
2018-09-01T00:24:37.812Z,97.8
2018-09-01T00:25:39.510Z,97.8
2018-09-01T00:26:41.295Z,97.8
2018-09-01T00:27:43.035Z,98.1
2018-09-01T00:28:45.066Z,98.5
2018-09-01T00:29:46.831Z,98.1
2018-09-01T00:30:48.489Z,98.5
2018-09-01T00:31:50.418Z,98.4
2018-09-01T00:32:52.174Z,98.3
2018-09-01T00:33:53.958Z,98.5
2018-09-01T00:34:55.854Z,99.1
2018-09-01T00:35:57.827Z,98.5
2018-09-01T00:36:59.516Z,98.8
2018-09-01T00:38:01.584Z,99.1
2018-09-01T00:39:03.318Z,98.8
2018-09-01T00:40:05.035Z,98.3
2018-09-01T00:41:06.840Z,99.1
2018-09-01T00:42:08.532Z,98.3
2018-09-01T00:43:10.498Z,98.4
2018-09-01T00:44:12.318Z,98.5
2018-09-01T00:45:14.043Z,98.6
2018-09-01T00:46:15.753Z,98.2
2018-09-01T00:47:17.792Z,98.2
2018-09-01T00:48:19.487Z,98.6
2018-09-01T00:49:21.207Z,99.1
2018-09-01T00:50:22.974Z,99.8
2018-09-01T00:51:24.636Z,99.3
2018-09-01T00:52:26.578Z,99.7
2018-09-01T00:53:28.347Z,99.7
2018-09-01T00:54:30.078Z,99.6
2018-09-01T00:55:31.819Z,99.5
2018-09-01T00:56:33.619Z,99.6
2018-09-01T00:57:35.463Z,99.8
2018-09-01T00:58:37.216Z,99.5
2018-09-01T00:59:39.024Z,99.5
2018-09-01T01:00:40.865Z,99.4
2018-09-01T01:01:42.580Z,99.6
2018-09-01T01:02:44.304Z,99.5
2018-09-01T01:03:46.049Z,99.7
2018-09-01T01:04:48.061Z,99.5
2018-09-01T01:05:50.084Z,99.2
2018-09-01T01:06:52.062Z,100.0
2018-09-01T01:07:53.819Z,99.8
2018-09-01T01:08:55.560Z,99.5
2018-09-01T01:09:57.300Z,99.4
2018-09-01T01:10:59.032Z,99.8
2018-09-01T01:12:01.071Z,99.6
2018-09-01T01:13:02.748Z,99.7
2018-09-01T01:14:04.505Z,99.6
2018-09-01T01:15:06.189Z,99.4
2018-09-01T01:16:07.920Z,99.5
2018-09-01T01:17:09.652Z,99.4
2018-09-01T01:18:11.353Z,99.9
2018-09-01T01:19:15.084Z,100.0
2018-09-01T01:20:17.037Z,100.0
2018-09-01T01:21:18.994Z,100.0
2018-09-01T01:22:20.737Z,100.0
2018-09-01T01:23:22.449Z,100.0
2018-09-01T01:24:24.472Z,100.0
2018-09-01T01:25:26.282Z,100.0
2018-09-01T01:26:28.382Z,100.0
2018-09-01T01:27:30.150Z,100.0
2018-09-01T01:28:31.864Z,100.0
2018-09-01T01:29:33.571Z,100.0
2018-09-01T01:30:35.254Z,100.0
2018-09-01T01:31:37.084Z,100.0
2018-09-01T01:32:38.755Z,100.0
2018-09-01T01:33:40.695Z,100.0
2018-09-01T01:34:42.393Z,100.0
2018-09-01T01:35:44.143Z,100.0
2018-09-01T01:36:45.916Z,100.0
2018-09-01T01:37:47.923Z,100.0
2018-09-01T01:38:49.968Z,100.0
2018-09-01T01:39:52.068Z,100.0
2018-09-01T01:40:53.744Z,100.0
2018-09-01T01:41:55.501Z,100.0
2018-09-01T01:42:57.317Z,100.0
2018-09-01T01:43:59.398Z,100.0
2018-09-01T01:45:01.544Z,100.0
2018-09-01T01:46:03.726Z,100.0
2018-09-01T01:47:05.456Z,100.0
2018-09-01T01:48:07.188Z,100.0
2018-09-01T01:49:08.872Z,100.0
2018-09-01T01:50:10.602Z,100.0
2018-09-01T01:51:12.351Z,100.0
2018-09-01T01:52:14.454Z,100.0
2018-09-01T01:53:16.166Z,100.0
2018-09-01T01:54:17.851Z,100.0
2018-09-01T01:55:19.590Z,100.0
2018-09-01T01:56:21.282Z,100.0
2018-09-01T01:57:23.255Z,100.0
2018-09-01T01:58:25.431Z,100.0
2018-09-01T01:59:27.156Z,100.0
2018-09-01T02:00:28.955Z,100.0
2018-09-01T02:01:30.985Z,100.0
2018-09-01T02:02:32.737Z,100.0
2018-09-01T02:03:34.513Z,100.0
2018-09-01T02:04:36.296Z,100.0
2018-09-01T02:05:38.471Z,100.0
2018-09-01T02:06:40.176Z,100.0
2018-09-01T02:07:41.888Z,100.0
2018-09-01T02:08:43.950Z,100.0
2018-09-01T02:09:45.656Z,100.0
2018-09-01T02:10:47.321Z,100.0
2018-09-01T02:11:49.004Z,100.0
2018-09-01T02:12:51.174Z,100.0
2018-09-01T02:13:52.891Z,100.0
2018-09-01T02:14:54.996Z,100.0
2018-09-01T02:15:56.737Z,100.0
2018-09-01T02:16:58.426Z,100.0
2018-09-01T02:18:00.138Z,100.0
2018-09-01T02:19:01.889Z,100.0
2018-09-01T02:20:04.035Z,100.0
2018-09-01T02:21:05.786Z,100.0
2018-09-01T02:22:07.447Z,100.0
2018-09-01T02:23:09.235Z,100.0
2018-09-01T02:24:11.385Z,100.0
2018-09-01T02:25:13.161Z,100.0
2018-09-01T02:26:14.882Z,100.0
2018-09-01T02:27:16.680Z,100.0
2018-09-01T02:28:18.430Z,100.0
2018-09-01T02:29:20.703Z,100.0
2018-09-01T02:30:22.305Z,100.0
2018-09-01T02:31:24.002Z,100.0
2018-09-01T02:32:25.753Z,100.0
2018-09-01T02:33:27.404Z,100.0
2018-09-01T02:34:29.090Z,100.0
2018-09-01T02:35:30.860Z,100.0
2018-09-01T02:36:32.531Z,100.0
2018-09-01T02:37:34.708Z,100.0
2018-09-01T02:38:36.847Z,100.0
2018-09-01T02:39:39.016Z,100.0
2018-09-01T02:40:40.655Z,100.0
2018-09-01T02:41:42.366Z,100.0
2018-09-01T02:42:44.085Z,100.0
2018-09-01T02:43:45.726Z,100.0
2018-09-01T02:44:47.402Z,100.0
2018-09-01T02:45:49.205Z,100.0
2018-09-01T02:46:50.918Z,100.0
2018-09-01T02:47:52.616Z,100.0
2018-09-01T02:48:54.372Z,100.0
2018-09-01T02:49:56.018Z,100.0
2018-09-01T02:50:58.256Z,100.0
2018-09-01T02:51:59.991Z,100.0
2018-09-01T02:53:01.694Z,100.0
2018-09-01T02:54:03.413Z,100.0
2018-09-01T02:55:05.114Z,100.0
2018-09-01T02:56:06.812Z,100.0
2018-09-01T02:57:08.520Z,100.0
2018-09-01T02:58:10.300Z,100.0
2018-09-01T02:59:12.507Z,100.0
2018-09-01T03:00:16.052Z,100.0
2018-09-01T03:01:17.794Z,100.0
2018-09-01T03:02:19.957Z,100.0
2018-09-01T03:03:21.715Z,100.0
2018-09-01T03:04:23.439Z,100.0
2018-09-01T03:05:25.769Z,100.0
2018-09-01T03:06:27.454Z,100.0
2018-09-01T03:07:29.176Z,100.0
2018-09-01T03:08:30.906Z,100.0
2018-09-01T03:09:32.619Z,100.0
2018-09-01T03:10:34.842Z,100.0
2018-09-01T03:11:36.548Z,100.0
2018-09-01T03:12:38.258Z,100.0
2018-09-01T03:13:39.991Z,100.0
2018-09-01T03:14:41.762Z,100.0
2018-09-01T03:15:43.474Z,100.0
2018-09-01T03:16:45.724Z,100.0
2018-09-01T03:17:47.474Z,100.0
2018-09-01T03:18:49.219Z,100.0
2018-09-01T03:19:50.935Z,100.0
2018-09-01T03:20:52.606Z,100.0
2018-09-01T03:21:54.323Z,100.0
2018-09-01T03:22:55.986Z,100.0
2018-09-01T03:23:58.048Z,100.0
2018-09-01T03:24:59.749Z,100.0
2018-09-01T03:26:01.439Z,100.0
2018-09-01T03:27:03.203Z,100.0
2018-09-01T03:28:04.937Z,100.0
2018-09-01T03:29:06.646Z,100.0
2018-09-01T03:30:08.956Z,100.0
2018-09-01T03:31:10.641Z,100.0
2018-09-01T03:32:12.403Z,100.0
2018-09-01T03:33:14.706Z,100.0
2018-09-01T03:34:16.465Z,100.0
2018-09-01T03:35:18.143Z,100.0
2018-09-01T03:36:19.929Z,100.0
2018-09-01T03:37:21.693Z,100.0
2018-09-01T03:38:23.407Z,100.0
2018-09-01T03:39:25.125Z,100.0
2018-09-01T03:40:26.744Z,100.0
2018-09-01T03:41:28.507Z,100.0
2018-09-01T03:42:30.206Z,100.0
2018-09-01T03:43:31.897Z,100.0
2018-09-01T03:44:34.165Z,100.0
2018-09-01T03:45:35.804Z,100.0
2018-09-01T03:46:37.559Z,100.0
2018-09-01T03:47:39.784Z,100.0
2018-09-01T03:48:41.357Z,100.0
2018-09-01T03:49:43.034Z,100.0
2018-09-01T03:50:44.793Z,100.0
2018-09-01T03:51:46.483Z,100.0
2018-09-01T03:52:48.673Z,100.0
2018-09-01T03:53:50.380Z,100.0
2018-09-01T03:54:52.068Z,100.0
2018-09-01T03:55:53.715Z,100.0
2018-09-01T03:56:55.393Z,100.0
2018-09-01T03:57:57.015Z,100.0
2018-09-01T03:58:58.740Z,100.0
2018-09-01T04:00:00.473Z,100.0
2018-09-01T04:01:02.222Z,100.0
2018-09-01T04:02:03.915Z,100.0
2018-09-01T04:03:06.135Z,100.0
2018-09-01T04:04:07.878Z,100.0
2018-09-01T04:05:09.606Z,100.0
2018-09-01T04:06:11.908Z,100.0
2018-09-01T04:07:13.673Z,100.0
2018-09-01T04:08:15.355Z,100.0
2018-09-01T04:09:17.043Z,100.0
2018-09-01T04:10:18.790Z,100.0
2018-09-01T04:11:20.469Z,100.0
2018-09-01T04:12:22.195Z,100.0
2018-09-01T04:13:23.840Z,100.0
2018-09-01T04:14:25.611Z,100.0
2018-09-01T04:15:27.880Z,100.0
2018-09-01T04:16:29.597Z,100.0
2018-09-01T04:17:31.327Z,100.0
2018-09-01T04:18:33.079Z,100.0
2018-09-01T04:19:34.775Z,100.0
2018-09-01T04:20:36.564Z,100.0
2018-09-01T04:21:38.237Z,100.0
2018-09-01T04:22:39.948Z,100.0
2018-09-01T04:23:41.666Z,100.0
2018-09-01T04:24:43.345Z,100.0
2018-09-01T04:25:45.056Z,100.0
2018-09-01T04:26:46.688Z,100.0
2018-09-01T04:27:48.424Z,100.0
2018-09-01T04:28:50.220Z,100.0
2018-09-01T04:29:52.578Z,100.0
2018-09-01T04:30:54.231Z,100.0
2018-09-01T04:31:55.948Z,100.0
2018-09-01T04:32:58.274Z,100.0
2018-09-01T04:34:00.548Z,100.0
2018-09-01T04:35:02.197Z,100.0
2018-09-01T04:36:03.912Z,100.0
2018-09-01T04:37:05.636Z,100.0
2018-09-01T04:38:07.333Z,100.0
2018-09-01T04:39:09.088Z,100.0
2018-09-01T04:40:10.818Z,100.0
2018-09-01T04:41:12.600Z,100.0
2018-09-01T04:42:14.357Z,100.0
2018-09-01T04:43:16.717Z,100.0
2018-09-01T04:44:18.516Z,100.0
2018-09-01T04:45:20.795Z,100.0
2018-09-01T04:46:23.128Z,100.0
2018-09-01T04:47:24.877Z,100.0
2018-09-01T04:48:27.314Z,100.0
2018-09-01T04:49:29.038Z,100.0
2018-09-01T04:50:30.721Z,100.0
2018-09-01T04:51:32.405Z,100.0
2018-09-01T04:52:34.131Z,100.0
2018-09-01T04:53:35.906Z,100.0
2018-09-01T04:54:37.625Z,100.0
2018-09-01T04:55:39.877Z,100.0
2018-09-01T04:56:41.561Z,100.0
2018-09-01T04:57:43.440Z,100.0
2018-09-01T04:58:45.849Z,100.0
2018-09-01T04:59:47.537Z,100.0
2018-09-01T05:00:49.458Z,100.0
2018-09-01T05:01:51.731Z,100.0
2018-09-01T05:02:53.919Z,100.0
2018-09-01T05:03:55.662Z,100.0
2018-09-01T05:04:57.407Z,100.0
2018-09-01T05:05:59.155Z,100.0
2018-09-01T05:07:00.838Z,100.0
2018-09-01T05:08:03.313Z,100.0
2018-09-01T05:09:05.304Z,100.0
2018-09-01T05:10:06.977Z,100.0
2018-09-01T05:11:08.721Z,100.0
2018-09-01T05:12:10.520Z,100.0
2018-09-01T05:13:12.270Z,100.0
2018-09-01T05:14:13.940Z,100.0
2018-09-01T05:15:15.598Z,100.0
2018-09-01T05:16:17.320Z,100.0
2018-09-01T05:17:19.075Z,100.0
2018-09-01T05:18:20.793Z,100.0
2018-09-01T05:19:22.447Z,99.5
2018-09-01T05:20:24.705Z,98.9
2018-09-01T05:21:26.287Z,98.6
2018-09-01T05:22:28.017Z,98.9
2018-09-01T05:23:29.784Z,98.9
2018-09-01T05:24:31.521Z,98.5
2018-09-01T05:25:33.374Z,98.0
2018-09-01T05:26:35.144Z,97.9
2018-09-01T05:27:37.340Z,97.8
2018-09-01T05:28:39.000Z,97.5
2018-09-01T05:29:41.369Z,97.3
2018-09-01T05:30:43.134Z,96.7
2018-09-01T05:31:45.433Z,95.7
2018-09-01T05:32:47.167Z,95.3
2018-09-01T05:33:48.837Z,95.4
2018-09-01T05:34:50.544Z,94.9
2018-09-01T05:35:52.205Z,95.4
2018-09-01T05:36:53.922Z,94.5
2018-09-01T05:37:56.071Z,94.0
2018-09-01T05:38:57.736Z,94.2
2018-09-01T05:39:59.458Z,94.1
2018-09-01T05:41:01.188Z,92.9
2018-09-01T05:42:03.268Z,93.5
2018-09-01T05:43:05.248Z,92.5
2018-09-01T05:44:06.994Z,91.2
2018-09-01T05:45:08.715Z,90.2
2018-09-01T05:46:10.826Z,89.6
2018-09-01T05:47:12.472Z,89.3
2018-09-01T05:48:14.270Z,88.2
2018-09-01T05:49:16.052Z,88.0
2018-09-01T05:50:17.867Z,88.0
2018-09-01T05:51:19.644Z,87.5
2018-09-01T05:52:21.406Z,86.7
2018-09-01T05:53:23.172Z,86.5
2018-09-01T05:54:24.894Z,86.5
2018-09-01T05:55:26.958Z,85.9
2018-09-01T05:56:29.070Z,85.7
2018-09-01T05:57:31.180Z,85.7
2018-09-01T05:58:32.967Z,84.6
2018-09-01T05:59:34.722Z,84.4
2018-09-01T06:00:36.561Z,83.9
2018-09-01T06:01:38.543Z,84.4
2018-09-01T06:02:40.264Z,83.9
2018-09-01T06:03:42.018Z,83.3
2018-09-01T06:04:44.315Z,82.5
2018-09-01T06:05:46.555Z,81.4
2018-09-01T06:06:48.195Z,81.5
2018-09-01T06:07:49.966Z,80.5
2018-09-01T06:08:51.715Z,80.3
2018-09-01T06:09:53.411Z,79.5
2018-09-01T06:10:55.138Z,79.1
2018-09-01T06:11:56.957Z,79.0
2018-09-01T06:12:58.754Z,79.3
2018-09-01T06:14:00.461Z,78.6
2018-09-01T06:15:02.649Z,78.2
2018-09-01T06:16:04.780Z,77.5
2018-09-01T06:17:06.381Z,78.1
2018-09-01T06:18:08.089Z,78.2
2018-09-01T06:19:09.798Z,78.1
2018-09-01T06:20:11.504Z,77.7
2018-09-01T06:21:13.254Z,77.3
2018-09-01T06:22:15.123Z,77.4
2018-09-01T06:23:16.879Z,77.4
2018-09-01T06:24:18.650Z,77.4
2018-09-01T06:25:20.500Z,76.8
2018-09-01T06:26:22.200Z,76.9
2018-09-01T06:27:23.949Z,76.7
2018-09-01T06:28:25.692Z,77.6
2018-09-01T06:29:28.118Z,77.5
2018-09-01T06:30:29.913Z,76.5
2018-09-01T06:31:31.729Z,76.1
2018-09-01T06:32:33.506Z,75.1
2018-09-01T06:33:35.256Z,75.2
2018-09-01T06:34:37.048Z,75.4
2018-09-01T06:35:38.977Z,75.4
2018-09-01T06:36:40.821Z,76.4
2018-09-01T06:37:42.894Z,76.5
2018-09-01T06:38:44.626Z,76.6
2018-09-01T06:39:46.891Z,76.0
2018-09-01T06:40:48.838Z,75.2
2018-09-01T06:41:50.540Z,75.1
2018-09-01T06:42:52.830Z,74.5
2018-09-01T06:43:54.677Z,74.1
2018-09-01T06:44:57.273Z,73.4
2018-09-01T06:45:59.753Z,72.9
2018-09-01T06:47:01.969Z,73.0
2018-09-01T06:48:04.078Z,73.0
2018-09-01T06:49:05.977Z,73.4
2018-09-01T06:50:08.202Z,73.4
2018-09-01T06:51:10.484Z,73.2
2018-09-01T06:52:12.698Z,73.1
2018-09-01T06:53:14.733Z,73.1
2018-09-01T06:54:16.718Z,72.8
2018-09-01T06:55:18.969Z,72.3
2018-09-01T06:56:21.102Z,71.6
2018-09-01T06:57:23.181Z,69.3
2018-09-01T06:58:25.454Z,69.0
2018-09-01T06:59:27.872Z,69.8
2018-09-01T07:00:30.159Z,67.9
2018-09-01T07:01:32.487Z,67.9
2018-09-01T07:02:34.854Z,68.2
2018-09-01T07:03:37.031Z,68.2
2018-09-01T07:04:39.325Z,68.3
2018-09-01T07:05:41.295Z,68.7
2018-09-01T07:06:43.607Z,66.9
2018-09-01T07:07:45.862Z,66.1
2018-09-01T07:08:47.946Z,66.2
2018-09-01T07:09:50.254Z,66.4
2018-09-01T07:10:52.492Z,65.8
2018-09-01T07:11:55.132Z,65.7
2018-09-01T07:12:57.228Z,66.2
2018-09-01T07:13:59.434Z,65.5
2018-09-01T07:15:01.484Z,64.0
2018-09-01T07:16:03.644Z,62.8
2018-09-01T07:17:05.728Z,62.2
2018-09-01T07:18:07.824Z,62.4
2018-09-01T07:19:10.179Z,62.5
2018-09-01T07:20:12.288Z,62.6
2018-09-01T07:21:14.700Z,62.6
2018-09-01T07:22:17.046Z,60.8
2018-09-01T07:23:19.140Z,60.5
2018-09-01T07:24:21.337Z,61.0
2018-09-01T07:25:23.472Z,61.0
2018-09-01T07:26:25.660Z,61.0
2018-09-01T07:27:27.769Z,60.4
2018-09-01T07:28:30.031Z,60.1
2018-09-01T07:29:32.053Z,60.5
2018-09-01T07:30:34.425Z,59.6
2018-09-01T07:31:36.797Z,59.7
2018-09-01T07:32:38.601Z,58.7
2018-09-01T07:33:40.790Z,58.6
2018-09-01T07:34:42.877Z,59.0
2018-09-01T07:35:45.009Z,59.3
2018-09-01T07:36:47.572Z,60.4
2018-09-01T07:37:49.792Z,61.0
2018-09-01T07:38:52.238Z,60.2
2018-09-01T07:39:54.532Z,60.4
2018-09-01T07:40:56.687Z,59.7
2018-09-01T07:41:59.155Z,59.3
2018-09-01T07:43:01.340Z,59.3
2018-09-01T07:44:03.557Z,57.4
2018-09-01T07:45:06.097Z,56.8
2018-09-01T07:46:08.200Z,56.3
2018-09-01T07:47:10.375Z,56.2
2018-09-01T07:48:12.685Z,56.5
2018-09-01T07:49:14.852Z,56.3
2018-09-01T07:50:16.980Z,55.4
2018-09-01T07:51:19.333Z,54.5
2018-09-01T07:52:21.397Z,54.4
2018-09-01T07:53:23.692Z,54.5
2018-09-01T07:54:26.052Z,54.9
2018-09-01T07:55:28.147Z,56.3
2018-09-01T07:56:30.340Z,56.0
2018-09-01T07:57:32.553Z,55.8
2018-09-01T07:58:34.799Z,55.8
2018-09-01T07:59:37.283Z,55.3
2018-09-01T08:00:39.480Z,54.2
2018-09-01T08:01:41.760Z,52.6
2018-09-01T08:02:44.125Z,53.8
2018-09-01T08:03:46.060Z,52.7
2018-09-01T08:04:48.548Z,53.1
2018-09-01T08:05:50.670Z,53.0
2018-09-01T08:06:52.892Z,51.4
2018-09-01T08:07:55.238Z,51.5
2018-09-01T08:08:57.442Z,51.3
2018-09-01T08:09:59.608Z,51.3
2018-09-01T08:11:01.998Z,50.6
2018-09-01T08:12:04.027Z,49.7
2018-09-01T08:13:06.421Z,50.6
2018-09-01T08:14:08.628Z,49.7
2018-09-01T08:15:10.664Z,49.3
2018-09-01T08:16:13.439Z,49.0
2018-09-01T08:17:15.662Z,48.4
2018-09-01T08:18:17.800Z,48.9
2018-09-01T08:19:20.171Z,49.0
2018-09-01T08:20:22.286Z,48.7
2018-09-01T08:21:24.479Z,48.6
2018-09-01T08:22:26.817Z,49.1
2018-09-01T08:23:28.940Z,49.4
2018-09-01T08:24:31.067Z,48.3
2018-09-01T08:25:34.581Z,48.2
2018-09-01T08:26:36.752Z,48.1
2018-09-01T08:27:39.324Z,47.3
2018-09-01T08:28:42.070Z,48.0
2018-09-01T08:29:44.178Z,47.0
2018-09-01T08:30:46.722Z,48.2
2018-09-01T08:31:49.078Z,47.3
2018-09-01T08:32:51.510Z,46.5
2018-09-01T08:33:53.589Z,46.6
2018-09-01T08:34:55.679Z,46.6
2018-09-01T08:35:57.787Z,46.1
2018-09-01T08:37:00.303Z,46.1
2018-09-01T08:38:02.365Z,45.8
2018-09-01T08:39:04.636Z,46.2
2018-09-01T08:40:06.727Z,46.3
2018-09-01T08:41:08.732Z,45.9
2018-09-01T08:42:10.897Z,46.3
2018-09-01T08:43:13.123Z,47.1
2018-09-01T08:44:15.728Z,46.6
2018-09-01T08:45:18.092Z,46.4
2018-09-01T08:46:20.359Z,47.1
2018-09-01T08:47:22.637Z,46.0
2018-09-01T08:48:25.206Z,46.4
2018-09-01T08:49:27.966Z,46.2
2018-09-01T08:50:30.203Z,46.0
2018-09-01T08:51:33.135Z,46.3
2018-09-01T08:52:35.442Z,46.1
2018-09-01T08:53:38.594Z,46.2
2018-09-01T08:54:41.452Z,44.8
2018-09-01T08:55:43.690Z,44.1
2018-09-01T08:56:45.774Z,45.9
2018-09-01T08:57:47.969Z,45.8
2018-09-01T08:58:50.043Z,45.2
2018-09-01T08:59:52.228Z,44.6
2018-09-01T09:00:54.652Z,44.9
2018-09-01T09:01:56.805Z,44.3
2018-09-01T09:02:58.971Z,44.4
2018-09-01T09:04:01.525Z,44.4
2018-09-01T09:05:04.064Z,46.2
2018-09-01T09:06:06.369Z,45.4
2018-09-01T09:07:08.568Z,43.4
2018-09-01T09:08:10.935Z,42.4
2018-09-01T09:09:13.148Z,41.3
2018-09-01T09:10:15.544Z,42.9
2018-09-01T09:11:17.715Z,41.9
2018-09-01T09:12:20.161Z,41.7
2018-09-01T09:13:22.363Z,41.5
2018-09-01T09:14:24.527Z,41.2
2018-09-01T09:15:26.821Z,41.4
2018-09-01T09:16:28.846Z,41.3
2018-09-01T09:17:30.946Z,41.2
2018-09-01T09:18:33.762Z,41.1
2018-09-01T09:19:35.931Z,43.0
2018-09-01T09:20:38.171Z,42.0
2018-09-01T09:21:40.234Z,43.2
2018-09-01T09:22:42.643Z,42.8
2018-09-01T09:23:45.185Z,44.0
2018-09-01T09:24:47.658Z,44.0
2018-09-01T09:25:49.709Z,42.8
2018-09-01T09:26:52.020Z,43.3
2018-09-01T09:27:54.257Z,43.6
2018-09-01T09:28:56.980Z,44.1
2018-09-01T09:29:59.124Z,44.5
2018-09-01T09:31:01.543Z,44.2
2018-09-01T09:32:04.069Z,44.1
2018-09-01T09:33:06.244Z,44.2
2018-09-01T09:34:08.532Z,42.6
2018-09-01T09:35:10.807Z,42.9
2018-09-01T09:36:12.920Z,41.3
2018-09-01T09:37:15.237Z,41.3
2018-09-01T09:38:17.526Z,40.6
2018-09-01T09:39:19.875Z,39.3
2018-09-01T09:40:22.085Z,39.5
2018-09-01T09:41:24.316Z,39.7
2018-09-01T09:42:26.424Z,40.6
2018-09-01T09:43:28.994Z,38.8
2018-09-01T09:44:31.133Z,38.9
2018-09-01T09:45:33.373Z,37.7
2018-09-01T09:46:35.460Z,38.8
2018-09-01T09:47:37.769Z,37.8
2018-09-01T09:48:40.211Z,38.1
2018-09-01T09:49:42.399Z,36.6
2018-09-01T09:50:44.768Z,35.6
2018-09-01T09:51:47.110Z,35.5
2018-09-01T09:52:49.325Z,36.2
2018-09-01T09:53:51.386Z,37.0
2018-09-01T09:54:53.859Z,37.3
2018-09-01T09:55:56.179Z,36.6
2018-09-01T09:56:58.313Z,35.2
2018-09-01T09:58:00.571Z,35.7
2018-09-01T09:59:02.833Z,35.2
2018-09-01T10:00:05.073Z,36.4
2018-09-01T10:01:07.352Z,38.1
2018-09-01T10:02:09.712Z,38.7
2018-09-01T10:03:12.368Z,39.8
2018-09-01T10:04:14.906Z,37.7
2018-09-01T10:05:17.473Z,37.0
2018-09-01T10:06:19.532Z,36.9
2018-09-01T10:07:21.772Z,37.8
2018-09-01T10:08:23.960Z,38.2
2018-09-01T10:09:26.089Z,36.9
2018-09-01T10:10:28.221Z,37.2
2018-09-01T10:11:30.709Z,37.5
2018-09-01T10:12:32.743Z,36.5
2018-09-01T10:13:35.189Z,34.8
2018-09-01T10:14:37.388Z,34.0
2018-09-01T10:15:39.735Z,35.6
2018-09-01T10:16:41.811Z,36.5
2018-09-01T10:17:45.006Z,34.8
2018-09-01T10:18:47.141Z,35.6
2018-09-01T10:19:49.348Z,34.0
2018-09-01T10:20:51.759Z,33.3
2018-09-01T10:21:53.946Z,33.8
2018-09-01T10:22:55.983Z,33.3
2018-09-01T10:23:58.188Z,34.5
2018-09-01T10:25:00.136Z,32.9
2018-09-01T10:26:02.567Z,34.0
2018-09-01T10:27:04.700Z,34.0
2018-09-01T10:28:06.890Z,33.0
2018-09-01T10:29:09.055Z,32.9
2018-09-01T10:30:11.162Z,32.7
2018-09-01T10:31:13.489Z,30.6
2018-09-01T10:32:15.754Z,31.2
2018-09-01T10:33:18.105Z,31.5
2018-09-01T10:34:20.295Z,32.5
2018-09-01T10:35:22.671Z,34.0
2018-09-01T10:36:24.967Z,35.3
2018-09-01T10:37:27.295Z,35.3
2018-09-01T10:38:30.332Z,35.5
2018-09-01T10:39:32.757Z,35.6
2018-09-01T10:40:35.229Z,35.3
2018-09-01T10:41:39.454Z,36.4
2018-09-01T10:42:40.865Z,39.1
2018-09-01T10:43:43.519Z,39.7
2018-09-01T10:44:45.475Z,39.8
2018-09-01T10:45:47.703Z,40.9
2018-09-01T10:46:50.390Z,41.4
2018-09-01T10:47:52.283Z,41.7
2018-09-01T10:48:54.431Z,41.8
2018-09-01T10:49:56.569Z,42.3
2018-09-01T10:50:59.272Z,41.7
2018-09-01T10:52:01.502Z,41.8
2018-09-01T10:53:03.993Z,42.0
2018-09-01T10:54:06.384Z,41.3
2018-09-01T10:55:08.898Z,40.7
2018-09-01T10:56:10.948Z,40.8
2018-09-01T10:57:13.320Z,40.4
2018-09-01T10:58:15.426Z,38.0
2018-09-01T10:59:18.347Z,38.6
2018-09-01T11:00:21.138Z,37.8
2018-09-01T11:01:23.335Z,36.5
2018-09-01T11:02:26.946Z,35.9
2018-09-01T11:03:29.520Z,37.6
2018-09-01T11:04:31.426Z,37.7
2018-09-01T11:05:34.261Z,39.3
2018-09-01T11:06:36.119Z,38.2
2018-09-01T11:07:38.272Z,37.4
2018-09-01T11:08:40.612Z,35.4
2018-09-01T11:09:43.170Z,35.1
2018-09-01T11:10:45.416Z,34.5
2018-09-01T11:11:48.135Z,35.4
2018-09-01T11:12:50.069Z,37.1
2018-09-01T11:13:52.328Z,37.2
2018-09-01T11:14:54.686Z,36.4
2018-09-01T11:15:57.798Z,36.3
2018-09-01T11:17:00.081Z,36.7
2018-09-01T11:18:02.397Z,36.3
2018-09-01T11:19:04.716Z,35.4
2018-09-01T11:20:06.645Z,34.1
2018-09-01T11:21:08.885Z,35.2
2018-09-01T11:22:10.877Z,34.6
2018-09-01T11:23:12.928Z,34.2
2018-09-01T11:24:14.882Z,34.9
2018-09-01T11:25:17.023Z,32.9
2018-09-01T11:26:19.050Z,32.7
2018-09-01T11:27:21.272Z,32.0
2018-09-01T11:28:23.237Z,31.5
2018-09-01T11:29:25.530Z,31.5
2018-09-01T11:30:27.410Z,32.7
2018-09-01T11:31:29.432Z,32.7
2018-09-01T11:32:31.478Z,32.2
2018-09-01T11:33:33.750Z,32.5
2018-09-01T11:34:35.949Z,32.1
2018-09-01T11:35:38.103Z,32.4
2018-09-01T11:36:40.371Z,32.7
2018-09-01T11:37:42.381Z,32.5
2018-09-01T11:38:44.749Z,31.9
2018-09-01T11:39:46.782Z,30.4
2018-09-01T11:40:49.066Z,29.4
2018-09-01T11:41:51.222Z,30.2
2018-09-01T11:42:53.439Z,30.3
2018-09-01T11:43:55.540Z,30.5
2018-09-01T11:44:57.649Z,31.4
2018-09-01T11:45:59.999Z,31.6
2018-09-01T11:47:02.228Z,32.1
2018-09-01T11:48:05.290Z,32.5
2018-09-01T11:49:07.452Z,33.3
2018-09-01T11:50:09.537Z,33.2
2018-09-01T11:51:11.647Z,32.9
2018-09-01T11:52:14.378Z,33.2
2018-09-01T11:53:16.933Z,33.7
2018-09-01T11:54:19.232Z,33.1
2018-09-01T11:55:21.425Z,32.3
2018-09-01T11:56:23.553Z,30.6
2018-09-01T11:57:25.794Z,29.7
2018-09-01T11:58:28.665Z,29.0
2018-09-01T11:59:31.002Z,30.1
2018-09-01T12:00:34.367Z,30.1
2018-09-01T12:01:36.731Z,30.9
2018-09-01T12:02:39.694Z,32.2
2018-09-01T12:03:41.956Z,33.6
2018-09-01T12:04:44.341Z,33.2
2018-09-01T12:05:46.708Z,33.3
2018-09-01T12:06:48.605Z,34.0
2018-09-01T12:07:50.584Z,33.4
2018-09-01T12:08:53.418Z,34.5
2018-09-01T12:09:55.504Z,34.7
2018-09-01T12:10:57.659Z,34.1
2018-09-01T12:12:00.002Z,34.5
2018-09-01T12:13:02.046Z,35.3
2018-09-01T12:14:06.171Z,35.7
2018-09-01T12:15:08.359Z,36.4
2018-09-01T12:16:10.463Z,36.8
2018-09-01T12:17:12.815Z,38.0
2018-09-01T12:18:15.207Z,37.7
2018-09-01T12:19:18.916Z,38.2
2018-09-01T12:20:20.967Z,38.4
2018-09-01T12:21:23.229Z,37.8
2018-09-01T12:22:25.253Z,37.4
2018-09-01T12:23:27.387Z,37.8
2018-09-01T12:24:29.398Z,38.3
2018-09-01T12:25:31.620Z,37.9
2018-09-01T12:26:33.959Z,38.4
2018-09-01T12:27:36.525Z,37.4
2018-09-01T12:28:38.784Z,38.6
2018-09-01T12:29:41.145Z,38.8
2018-09-01T12:30:43.444Z,39.7
2018-09-01T12:31:46.742Z,39.3
2018-09-01T12:32:48.994Z,39.5
2018-09-01T12:33:51.227Z,39.0
2018-09-01T12:34:54.080Z,39.5
2018-09-01T12:35:56.158Z,39.5
2018-09-01T12:36:58.094Z,40.0
2018-09-01T12:38:02.983Z,40.3
2018-09-01T12:39:05.912Z,39.1
2018-09-01T12:40:07.986Z,39.6
2018-09-01T12:41:10.080Z,38.5
2018-09-01T12:42:13.083Z,38.6
2018-09-01T12:43:14.996Z,37.8
2018-09-01T12:44:17.143Z,38.5
2018-09-01T12:45:19.351Z,35.8
2018-09-01T12:46:22.175Z,34.7
2018-09-01T12:47:25.164Z,34.6
2018-09-01T12:48:27.228Z,34.1
2018-09-01T12:49:30.091Z,34.5
2018-09-01T12:50:33.177Z,33.2
2018-09-01T12:51:35.567Z,33.1
2018-09-01T12:52:37.900Z,33.7
2018-09-01T12:53:40.214Z,33.3
2018-09-01T12:54:43.056Z,34.1
2018-09-01T12:55:45.277Z,32.8
2018-09-01T12:56:47.647Z,33.3
2018-09-01T12:57:50.326Z,32.3
2018-09-01T12:58:52.835Z,31.4
2018-09-01T12:59:54.845Z,31.5
2018-09-01T13:00:57.495Z,32.1
2018-09-01T13:01:59.579Z,31.4
2018-09-01T13:03:01.929Z,30.8
2018-09-01T13:04:04.015Z,31.4
2018-09-01T13:05:06.989Z,30.6
2018-09-01T13:06:09.307Z,31.3
2018-09-01T13:07:11.939Z,30.3
2018-09-01T13:08:14.197Z,30.9
2018-09-01T13:09:16.313Z,31.6
2018-09-01T13:10:18.983Z,32.1
2018-09-01T13:11:21.268Z,31.2
2018-09-01T13:12:23.514Z,32.6
2018-09-01T13:13:25.870Z,32.9
2018-09-01T13:14:28.246Z,32.7
2018-09-01T13:15:30.926Z,34.0
2018-09-01T13:16:33.655Z,33.2
2018-09-01T13:17:35.974Z,34.2
2018-09-01T13:18:38.672Z,35.4
2018-09-01T13:19:41.663Z,36.7
2018-09-01T13:20:43.658Z,37.0
2018-09-01T13:21:45.948Z,37.6
2018-09-01T13:22:47.916Z,38.8
2018-09-01T13:23:49.880Z,38.7
2018-09-01T13:24:52.061Z,38.4
2018-09-01T13:25:54.313Z,38.5
2018-09-01T13:26:57.012Z,39.5
2018-09-01T13:27:59.228Z,39.5
2018-09-01T13:29:01.432Z,40.0
2018-09-01T13:30:04.532Z,39.8
2018-09-01T13:31:06.545Z,40.1
2018-09-01T13:32:08.907Z,40.4
2018-09-01T13:33:11.315Z,40.4
2018-09-01T13:34:13.667Z,39.7
2018-09-01T13:35:15.771Z,38.0
2018-09-01T13:36:17.848Z,37.3
2018-09-01T13:37:20.131Z,36.7
2018-09-01T13:38:22.180Z,35.1